Chase, Michigan
Current Conditions -  °F | °C
As of 10:54 PM on Saturday 25 Oct 2014 (Local Time) from KRQB Reporting Station
Clear Clear  
Wind Chill: 53°   Ceiling: Unl
Heat Index: 53°   Visibility: 10mi
Dew Point: 37°   Wind: 12mph
Humidity: 55%   Direction: 300°WNW
Pressure: 29.83"   Gusts: 17mph
Location:  43.89°N, 85.64°W
Report Text: KRQB 260254Z AUTO 30010G15KT 10SM CLR 12/03 A2983 RMK AO2 T01150026
Loading
Personal Weather Stations






























Interactive Weather Map
Tropical Storm Tracking
New forecast layout! Learn more

10-Day Weather Forecast

Advertisements
Track Severe Weather on mobile